Time;durP1;ratioP1;P1;durP2;ratioP2;P2;SDS_P1;SDS_P2;PMS_P1;PMS_P2;Temp;Humidity;BMP_temperature;BMP_pressure;BME280_temperature;BME280_humidity;BME280_pressure;Samples;Min_cycle;Max_cycle;Signal;HPM_P1;HPM_P2
2022/06/09 00:00:52;;;;;;;14.50;5.20;;;;;;;;;;5092902;28;20048;-71
2022/06/09 00:03:39;;;;;;;15.30;5.88;;;;;;;;;;5092344;28;20048;-71
2022/06/09 00:06:10;;;;;;;11.70;5.47;;;;;;;;;;5093048;28;20039;-71
2022/06/09 00:08:46;;;;;;;13.15;5.28;;;;;;;;;;5092700;28;20040;-70
2022/06/09 00:11:25;;;;;;;15.45;5.70;;;;;;;;;;5092952;28;20055;-70
2022/06/09 00:13:58;;;;;;;14.93;5.82;;;;;;;;;;5092826;28;20047;-70
2022/06/09 00:16:29;;;;;;;16.92;6.40;;;;;;;;;;5056269;28;20051;-70
2022/06/09 00:18:59;;;;;;;16.25;5.78;;;;;;;;;;5090245;28;20048;-70
2022/06/09 00:21:29;;;;;;;17.73;6.57;;;;;;;;;;5090075;28;20067;-71
2022/06/09 00:24:00;;;;;;;16.88;6.38;;;;;;;;;;5049672;28;20056;-71
2022/06/09 00:26:31;;;;;;;16.60;7.70;;;;;;;;;;5029476;28;20053;-70
2022/06/09 00:29:03;;;;;;;20.67;8.90;;;;;;;;;;5009874;28;20045;-71
2022/06/09 00:31:34;;;;;;;18.02;7.82;;;;;;;;;;4990056;28;20064;-70
2022/06/09 00:34:04;;;;;;;17.75;7.95;;;;;;;;;;4970715;28;20059;-70
2022/06/09 00:36:35;;;;;;;13.13;6.88;;;;;;;;;;4970854;28;20054;-70
2022/06/09 00:39:06;;;;;;;13.55;5.82;;;;;;;;;;4970953;28;20061;-71
2022/06/09 00:41:43;;;;;;;14.20;6.32;;;;;;;;;;4954890;28;20070;-71
2022/06/09 00:44:21;;;;;;;15.23;6.15;;;;;;;;;;4900843;29;20542;-71
2022/06/09 00:47:27;;;;;;;14.25;5.20;;;;;;;;;;4932151;29;20067;-70
2022/06/09 00:50:13;;;;;;;15.70;6.05;;;;;;;;;;4932234;29;20063;-70
2022/06/09 00:52:49;;;;;;;17.55;5.78;;;;;;;;;;4932227;29;20547;-71
2022/06/09 00:55:22;;;;;;;23.67;6.13;;;;;;;;;;4951229;28;20063;-71
2022/06/09 00:58:02;;;;;;;16.77;6.55;;;;;;;;;;4950992;28;20051;-72
2022/06/09 01:00:58;;;;;;;16.45;6.43;;;;;;;;;;4951121;28;20055;-73
2022/06/09 01:03:42;;;;;;;15.20;6.10;;;;;;;;;;4955207;28;20055;-75
2022/06/09 01:06:22;;;;;;;18.15;5.93;;;;;;;;;;4976661;28;20063;-70
2022/06/09 01:09:14;;;;;;;16.25;6.38;;;;;;;;;;4964493;28;20068;-70
2022/06/09 01:11:49;;;;;;;13.57;6.20;;;;;;;;;;5030471;28;20092;-71
2022/06/09 01:14:23;;;;;;;15.43;6.22;;;;;;;;;;5047922;28;20060;-71
2022/06/09 01:17:06;;;;;;;12.48;5.82;;;;;;;;;;5048967;28;20048;-71
2022/06/09 01:20:00;;;;;;;13.35;6.30;;;;;;;;;;5028957;28;20050;-71
2022/06/09 01:22:46;;;;;;;11.73;5.45;;;;;;;;;;5023619;28;20085;-71
2022/06/09 01:25:33;;;;;;;;;;;;;;;;;;5029397;28;20053;-71
2022/06/09 01:28:34;;;;;;;13.00;5.80;;;;;;;;;;5030886;28;19932;-74
2022/06/09 01:31:49;;;;;;;16.23;5.50;;;;;;;;;;5008464;28;20544;-71
2022/06/09 01:34:34;;;;;;;14.00;5.97;;;;;;;;;;4912530;29;20067;-71
2022/06/09 01:37:07;;;;;;;12.60;5.68;;;;;;;;;;4912719;29;20069;-71
2022/06/09 01:40:00;;;;;;;11.52;5.88;;;;;;;;;;4912649;29;20052;-71
2022/06/09 01:42:37;;;;;;;13.75;5.22;;;;;;;;;;4893288;29;20068;-71
2022/06/09 01:45:14;;;;;;;12.85;5.75;;;;;;;;;;4893506;29;20044;-71
2022/06/09 01:47:51;;;;;;;11.45;5.90;;;;;;;;;;4912244;29;20052;-71
2022/06/09 01:50:32;;;;;;;17.25;5.50;;;;;;;;;;4912482;29;20064;-71
2022/06/09 01:53:09;;;;;;;14.15;5.35;;;;;;;;;;4881138;29;20066;-71
2022/06/09 01:55:44;;;;;;;14.32;5.43;;;;;;;;;;4892988;29;20169;-74
2022/06/09 01:58:18;;;;;;;13.70;5.93;;;;;;;;;;4859492;29;20056;-70
2022/06/09 02:00:50;;;;;;;16.38;6.35;;;;;;;;;;4874626;29;20061;-71
2022/06/09 02:03:28;;;;;;;14.02;6.10;;;;;;;;;;4874433;29;20049;-71
2022/06/09 02:06:01;;;;;;;15.02;5.93;;;;;;;;;;4874838;29;20558;-71
2022/06/09 02:08:33;;;;;;;16.00;7.32;;;;;;;;;;4916271;28;20443;-71
2022/06/09 02:11:10;;;;;;;19.40;6.60;;;;;;;;;;4950356;28;20064;-71
2022/06/09 02:13:48;;;;;;;16.35;6.28;;;;;;;;;;4950050;28;20055;-71
2022/06/09 02:16:21;;;;;;;14.32;6.45;;;;;;;;;;4950437;28;20055;-71
2022/06/09 02:18:56;;;;;;;23.70;7.68;;;;;;;;;;4950377;28;20066;-71
2022/06/09 02:21:35;;;;;;;18.80;7.03;;;;;;;;;;5008487;28;20529;-71
2022/06/09 02:24:06;;;;;;;22.00;7.80;;;;;;;;;;5028211;28;20053;-71
2022/06/09 02:26:37;;;;;;;22.48;6.78;;;;;;;;;;5030591;28;20565;-71
2022/06/09 02:29:08;;;;;;;20.17;7.35;;;;;;;;;;5031764;28;20072;-71
2022/06/09 02:31:38;;;;;;;25.77;7.40;;;;;;;;;;5032062;28;20046;-71
2022/06/09 02:34:09;;;;;;;25.35;7.50;;;;;;;;;;5048996;28;20061;-72
2022/06/09 02:36:40;;;;;;;26.65;7.95;;;;;;;;;;5051195;28;20059;-71
2022/06/09 02:39:10;;;;;;;23.40;7.30;;;;;;;;;;5092110;28;20049;-71
2022/06/09 02:41:40;;;;;;;22.23;7.45;;;;;;;;;;5071371;28;20045;-71
2022/06/09 02:44:11;;;;;;;21.25;7.10;;;;;;;;;;5034496;28;20045;-71
2022/06/09 02:46:41;;;;;;;21.50;6.78;;;;;;;;;;5051518;28;20053;-72
2022/06/09 02:49:12;;;;;;;15.00;6.25;;;;;;;;;;5034926;28;20056;-71
2022/06/09 02:51:42;;;;;;;22.65;6.25;;;;;;;;;;5051615;28;20041;-71
2022/06/09 02:54:12;;;;;;;23.95;7.07;;;;;;;;;;5051446;28;20534;-71
2022/06/09 02:56:43;;;;;;;20.30;6.43;;;;;;;;;;5051400;28;20057;-72
2022/06/09 02:59:14;;;;;;;19.95;6.57;;;;;;;;;;5051330;28;20061;-71
2022/06/09 03:01:45;;;;;;;22.15;7.47;;;;;;;;;;5051002;28;20057;-71
2022/06/09 03:04:15;;;;;;;23.63;7.07;;;;;;;;;;5051365;28;20120;-71
2022/06/09 03:06:46;;;;;;;23.90;6.55;;;;;;;;;;5051275;28;20162;-71
2022/06/09 03:09:16;;;;;;;17.48;6.00;;;;;;;;;;5031097;28;20050;-72
2022/06/09 03:11:47;;;;;;;17.80;8.02;;;;;;;;;;5031332;28;20437;-71
2022/06/09 03:14:17;;;;;;;22.60;7.20;;;;;;;;;;5030987;28;20045;-71
2022/06/09 03:16:47;;;;;;;17.60;6.40;;;;;;;;;;5031462;28;20406;-71
2022/06/09 03:19:19;;;;;;;21.02;6.40;;;;;;;;;;5017622;28;20048;-71
2022/06/09 03:21:50;;;;;;;15.35;5.97;;;;;;;;;;5020869;28;20045;-70
2022/06/09 03:24:20;;;;;;;23.67;5.68;;;;;;;;;;5030908;28;20053;-70
2022/06/09 03:26:51;;;;;;;16.73;6.63;;;;;;;;;;4994839;28;20050;-71
2022/06/09 03:29:21;;;;;;;20.40;6.63;;;;;;;;;;4971860;28;20054;-71
2022/06/09 03:31:52;;;;;;;19.50;6.93;;;;;;;;;;4924230;28;20206;-70
2022/06/09 03:34:23;;;;;;;17.58;6.60;;;;;;;;;;4991104;28;20057;-71
2022/06/09 03:36:54;;;;;;;19.17;6.63;;;;;;;;;;4958054;28;20098;-70
2022/06/09 03:39:23;;;;;;;16.88;6.68;;;;;;;;;;4992317;28;20058;-71
2022/06/09 03:41:54;;;;;;;17.92;7.50;;;;;;;;;;4962126;28;20069;-70
2022/06/09 03:44:25;;;;;;;21.95;6.82;;;;;;;;;;4971435;28;20042;-70
2022/06/09 03:46:55;;;;;;;19.88;6.20;;;;;;;;;;4971630;28;20178;-70
2022/06/09 03:49:25;;;;;;;17.83;6.05;;;;;;;;;;4951818;29;20051;-70
2022/06/09 03:51:55;;;;;;;15.15;6.18;;;;;;;;;;4951931;29;20578;-70
2022/06/09 03:54:26;;;;;;;15.65;5.93;;;;;;;;;;4952445;29;20070;-70
2022/06/09 03:56:56;;;;;;;15.10;6.53;;;;;;;;;;4952204;29;20062;-70
2022/06/09 03:59:26;;;;;;;18.80;6.65;;;;;;;;;;4943123;29;20064;-71
2022/06/09 04:01:58;;;;;;;15.95;6.80;;;;;;;;;;4901334;29;20056;-71
2022/06/09 04:04:28;;;;;;;17.67;6.57;;;;;;;;;;4933016;29;20062;-70
2022/06/09 04:06:59;;;;;;;14.77;5.85;;;;;;;;;;4942302;29;20063;-70
2022/06/09 04:09:29;;;;;;;18.90;6.65;;;;;;;;;;4952075;29;20058;-70
2022/06/09 04:12:00;;;;;;;21.02;6.82;;;;;;;;;;4961403;28;20058;-71
2022/06/09 04:14:30;;;;;;;18.73;6.95;;;;;;;;;;4970997;28;20076;-71
2022/06/09 04:17:00;;;;;;;15.30;6.75;;;;;;;;;;4971225;28;20055;-70
2022/06/09 04:19:31;;;;;;;16.35;7.43;;;;;;;;;;4939609;28;20051;-71
2022/06/09 04:22:01;;;;;;;18.88;7.18;;;;;;;;;;4999605;28;20417;-72
2022/06/09 04:24:32;;;;;;;16.27;6.65;;;;;;;;;;5029833;28;20045;-70
2022/06/09 04:27:04;;;;;;;20.90;7.30;;;;;;;;;;5049125;28;20068;-70
2022/06/09 04:29:34;;;;;;;;;;;;;;;;;;5021598;28;20052;-71
2022/06/09 04:32:05;;;;;;;16.65;6.57;;;;;;;;;;5092311;28;19920;-70
2022/06/09 04:34:35;;;;;;;18.80;7.30;;;;;;;;;;5090898;28;20500;-70
2022/06/09 04:37:07;;;;;;;23.55;6.57;;;;;;;;;;5069544;28;20048;-71
2022/06/09 04:39:37;;;;;;;20.20;6.68;;;;;;;;;;5069434;28;20063;-71
2022/06/09 04:42:08;;;;;;;21.90;7.53;;;;;;;;;;5069400;28;20067;-70
2022/06/09 04:44:39;;;;;;;21.92;7.15;;;;;;;;;;5019801;28;20052;-70
2022/06/09 04:47:09;;;;;;;27.77;8.75;;;;;;;;;;5069457;28;20045;-71
2022/06/09 04:49:40;;;;;;;26.67;8.27;;;;;;;;;;5069257;28;20057;-70
2022/06/09 04:52:10;;;;;;;23.48;8.05;;;;;;;;;;5069089;28;20044;-71
2022/06/09 04:54:42;;;;;;;;;;;;;;;;;;5069566;28;20440;-70
2022/06/09 04:57:12;;;;;;;31.88;7.82;;;;;;;;;;5049168;28;19921;-70
2022/06/09 04:59:43;;;;;;;29.67;8.55;;;;;;;;;;5049097;28;20053;-71
2022/06/09 05:02:13;;;;;;;23.05;8.32;;;;;;;;;;5028961;28;20057;-71
2022/06/09 05:04:44;;;;;;;24.63;8.85;;;;;;;;;;5028969;28;20061;-71
2022/06/09 05:07:16;;;;;;;25.55;8.65;;;;;;;;;;5009160;28;20094;-70
2022/06/09 05:09:47;;;;;;;21.70;7.10;;;;;;;;;;5009261;28;20057;-71
2022/06/09 05:12:17;;;;;;;20.88;7.22;;;;;;;;;;5009455;28;20069;-71
2022/06/09 05:14:47;;;;;;;22.95;7.20;;;;;;;;;;5008554;28;20057;-72
2022/06/09 05:17:20;;;;;;;20.83;8.18;;;;;;;;;;5009151;28;20617;-71
2022/06/09 05:19:51;;;;;;;19.80;7.68;;;;;;;;;;5009294;28;20054;-71
2022/06/09 05:22:21;;;;;;;21.63;7.45;;;;;;;;;;4989461;28;20054;-71
2022/06/09 05:24:51;;;;;;;17.60;7.20;;;;;;;;;;4989476;28;20415;-71
2022/06/09 05:27:21;;;;;;;13.90;6.28;;;;;;;;;;4991247;28;20121;-70
2022/06/09 05:29:51;;;;;;;14.05;5.63;;;;;;;;;;5009137;28;20049;-71
2022/06/09 05:32:22;;;;;;;12.40;5.75;;;;;;;;;;5009239;28;20062;-71
2022/06/09 05:34:52;;;;;;;13.05;5.10;;;;;;;;;;4993146;28;20062;-71
2022/06/09 05:37:23;;;;;;;10.80;4.65;;;;;;;;;;4992841;28;20053;-71
2022/06/09 05:45:31;;;;;;;10.63;4.10;;;;;;;;;;5015397;28;20045;-71
2022/06/09 05:48:01;;;;;;;10.30;4.57;;;;;;;;;;5032224;28;20053;-71
2022/06/09 05:50:31;;;;;;;9.48;4.72;;;;;;;;;;5048690;28;20049;-71
2022/06/09 05:53:01;;;;;;;10.55;4.68;;;;;;;;;;5027984;28;20965;-70
2022/06/09 05:55:33;;;;;;;10.73;4.75;;;;;;;;;;5028650;28;20072;-70
2022/06/09 05:58:03;;;;;;;9.52;4.38;;;;;;;;;;5029011;28;20053;-73
2022/06/09 06:00:33;;;;;;;11.02;4.47;;;;;;;;;;5058632;28;20072;-70
2022/06/09 06:03:04;;;;;;;9.45;4.78;;;;;;;;;;5039160;28;20083;-71
2022/06/09 06:08:25;;;;;;;10.68;5.75;;;;;;;;;;5072351;28;20409;-71
2022/06/09 06:10:56;;;;;;;8.70;4.22;;;;;;;;;;5056243;28;20078;-71
2022/06/09 06:13:27;;;;;;;11.30;4.25;;;;;;;;;;5072158;28;20056;-70
2022/06/09 06:15:57;;;;;;;7.68;3.72;;;;;;;;;;5072031;28;20053;-71
2022/06/09 06:18:37;;;;;;;9.80;5.25;;;;;;;;;;5057121;28;20420;-71
2022/06/09 06:21:08;;;;;;;9.00;4.10;;;;;;;;;;5072133;28;20049;-70
2022/06/09 06:23:40;;;;;;;8.55;3.63;;;;;;;;;;5072113;28;20068;-71
2022/06/09 06:26:11;;;;;;;8.85;4.20;;;;;;;;;;5072210;28;20044;-69
2022/06/09 06:28:41;;;;;;;8.10;3.65;;;;;;;;;;5047761;28;20501;-70
2022/06/09 06:31:12;;;;;;;8.35;3.80;;;;;;;;;;5032042;28;20058;-71
2022/06/09 06:33:43;;;;;;;10.43;4.35;;;;;;;;;;5015520;28;20409;-70
2022/06/09 06:36:13;;;;;;;8.50;3.95;;;;;;;;;;5031973;28;20060;-70
2022/06/09 06:38:44;;;;;;;8.30;4.10;;;;;;;;;;5011795;28;20053;-70
2022/06/09 06:41:17;;;;;;;8.23;3.70;;;;;;;;;;5012233;28;20572;-71
2022/06/09 06:43:49;;;;;;;7.38;3.85;;;;;;;;;;5011940;28;20058;-70
2022/06/09 06:46:20;;;;;;;7.80;3.53;;;;;;;;;;4996038;28;20054;-70
2022/06/09 06:48:50;;;;;;;7.93;3.70;;;;;;;;;;5011982;28;20517;-70
2022/06/09 06:51:20;;;;;;;8.38;3.58;;;;;;;;;;5012045;28;20054;-70
2022/06/09 06:53:51;;;;;;;7.30;3.35;;;;;;;;;;5019033;28;21196;-70
2022/06/09 06:56:21;;;;;;;7.68;3.63;;;;;;;;;;5035621;28;20069;-70
2022/06/09 06:58:51;;;;;;;7.60;3.08;;;;;;;;;;5051521;28;20060;-70
2022/06/09 07:01:21;;;;;;;8.00;3.85;;;;;;;;;;5051779;28;20520;-70
2022/06/09 07:03:51;;;;;;;8.35;3.78;;;;;;;;;;5051219;28;20057;-71
2022/06/09 07:06:22;;;;;;;8.65;3.58;;;;;;;;;;5031258;28;20053;-71
2022/06/09 07:08:52;;;;;;;8.70;3.47;;;;;;;;;;5051184;28;20045;-71
2022/06/09 07:11:22;;;;;;;8.98;4.20;;;;;;;;;;5017893;28;20060;-70
2022/06/09 07:13:53;;;;;;;7.60;3.88;;;;;;;;;;5017022;28;20056;-71
2022/06/09 07:16:24;;;;;;;8.20;3.35;;;;;;;;;;5061872;28;20532;-70
2022/06/09 07:19:15;;;;;;;7.72;3.20;;;;;;;;;;5030946;28;20057;-71
2022/06/09 07:21:45;;;;;;;8.80;3.42;;;;;;;;;;5011099;28;20050;-71
2022/06/09 07:24:15;;;;;;;8.48;3.60;;;;;;;;;;4971743;28;20166;-71
2022/06/09 07:26:46;;;;;;;8.43;3.58;;;;;;;;;;4972030;28;20066;-70
2022/06/09 07:29:17;;;;;;;8.70;3.28;;;;;;;;;;4991312;28;20058;-71
2022/06/09 07:31:47;;;;;;;8.07;3.08;;;;;;;;;;4960012;28;20061;-69
2022/06/09 07:34:18;;;;;;;10.50;4.30;;;;;;;;;;4991561;28;20418;-70
2022/06/09 07:36:49;;;;;;;7.88;3.80;;;;;;;;;;4991383;28;20062;-70
2022/06/09 07:39:19;;;;;;;7.13;3.15;;;;;;;;;;4991554;28;20055;-70
2022/06/09 07:41:50;;;;;;;7.20;3.30;;;;;;;;;;4959131;28;20057;-72
2022/06/09 07:44:21;;;;;;;7.40;3.35;;;;;;;;;;4939340;28;20168;-70
2022/06/09 07:46:51;;;;;;;7.43;3.33;;;;;;;;;;4952256;29;20055;-71
2022/06/09 07:49:21;;;;;;;10.68;3.97;;;;;;;;;;4952390;29;20583;-71
2022/06/09 07:51:52;;;;;;;7.35;3.22;;;;;;;;;;4951225;29;21076;-70
2022/06/09 07:54:22;;;;;;;8.85;3.65;;;;;;;;;;4933209;29;20516;-71
2022/06/09 07:56:53;;;;;;;9.88;3.58;;;;;;;;;;4942817;29;20063;-70
2022/06/09 07:59:23;;;;;;;8.70;3.10;;;;;;;;;;4952106;29;20526;-70
2022/06/09 08:01:53;;;;;;;7.43;3.38;;;;;;;;;;4962109;28;20534;-70
2022/06/09 08:04:30;;;;;;;9.57;3.80;;;;;;;;;;4962497;28;20507;-71
2022/06/09 08:07:02;;;;;;;7.97;4.00;;;;;;;;;;4981860;28;20425;-70
2022/06/09 08:09:39;;;;;;;7.53;3.45;;;;;;;;;;4990964;28;20481;-70
2022/06/09 08:12:10;;;;;;;7.85;3.65;;;;;;;;;;4990694;28;20153;-71
2022/06/09 08:14:41;;;;;;;5.28;2.65;;;;;;;;;;4990690;28;20058;-71
2022/06/09 08:17:11;;;;;;;7.20;3.00;;;;;;;;;;4971310;28;20054;-70
2022/06/09 08:19:42;;;;;;;9.45;4.00;;;;;;;;;;4970969;28;20681;-69
2022/06/09 08:22:12;;;;;;;7.85;3.50;;;;;;;;;;4971182;28;20070;-70
2022/06/09 08:24:43;;;;;;;9.95;3.95;;;;;;;;;;4967053;28;20059;-70
2022/06/09 08:27:14;;;;;;;8.32;3.70;;;;;;;;;;4951815;29;20051;-70
2022/06/09 08:29:45;;;;;;;9.90;3.72;;;;;;;;;;4951667;29;20062;-71
2022/06/09 08:32:15;;;;;;;7.65;3.65;;;;;;;;;;4951756;29;20066;-73
2022/06/09 08:34:45;;;;;;;10.48;3.58;;;;;;;;;;4951612;29;20055;-71
2022/06/09 08:37:16;;;;;;;9.75;4.35;;;;;;;;;;4970826;28;20446;-70
2022/06/09 08:39:46;;;;;;;8.85;3.83;;;;;;;;;;4982899;28;20058;-71
2022/06/09 08:42:29;;;;;;;9.55;3.72;;;;;;;;;;4990422;28;20051;-70
2022/06/09 08:45:02;;;;;;;8.88;3.80;;;;;;;;;;4957877;28;20074;-70
2022/06/09 08:47:38;;;;;;;8.88;3.78;;;;;;;;;;4970646;28;20055;-70
2022/06/09 08:50:21;;;;;;;8.65;4.00;;;;;;;;;;4970518;28;20059;-70
2022/06/09 08:52:58;;;;;;;7.82;4.05;;;;;;;;;;4970709;28;20054;-71
2022/06/09 08:55:43;;;;;;;9.45;3.75;;;;;;;;;;4953249;28;20073;-71
2022/06/09 08:58:30;;;;;;;8.50;3.47;;;;;;;;;;5009507;28;20405;-71
2022/06/09 09:01:12;;;;;;;7.82;3.15;;;;;;;;;;4980463;28;20060;-71
2022/06/09 09:03:56;;;;;;;9.18;3.22;;;;;;;;;;5069020;28;20060;-71
2022/06/09 09:06:39;;;;;;;6.60;3.17;;;;;;;;;;5048803;28;20067;-70
2022/06/09 09:09:23;;;;;;;7.63;3.25;;;;;;;;;;5048754;28;20049;-70
2022/06/09 09:12:05;;;;;;;8.55;4.32;;;;;;;;;;5048888;28;20048;-71
2022/06/09 09:14:47;;;;;;;7.68;3.50;;;;;;;;;;5007198;28;20057;-71
2022/06/09 09:17:41;;;;;;;6.32;2.92;;;;;;;;;;5053249;28;20064;-71
2022/06/09 09:20:26;;;;;;;7.88;3.45;;;;;;;;;;5068836;28;20766;-70
2022/06/09 09:23:09;;;;;;;6.00;2.67;;;;;;;;;;5068835;28;20511;-71
2022/06/09 09:26:03;;;;;;;9.55;3.40;;;;;;;;;;5039953;28;20041;-70
2022/06/09 09:28:48;;;;;;;8.73;3.10;;;;;;;;;;5028816;28;20100;-70
2022/06/09 09:31:36;;;;;;;7.05;2.83;;;;;;;;;;5028738;28;20064;-71
2022/06/09 09:34:17;;;;;;;11.15;3.25;;;;;;;;;;5028724;28;20196;-71
2022/06/09 09:36:59;;;;;;;7.95;3.38;;;;;;;;;;5027875;28;20060;-71
2022/06/09 09:39:47;;;;;;;6.80;3.08;;;;;;;;;;5028743;28;20056;-72
2022/06/09 09:42:20;;;;;;;7.53;2.95;;;;;;;;;;5028666;28;20110;-71
2022/06/09 09:45:17;;;;;;;7.80;3.80;;;;;;;;;;5012793;28;20623;-71
2022/06/09 09:48:00;;;;;;;9.38;3.35;;;;;;;;;;5009948;28;20045;-71
2022/06/09 09:50:41;;;;;;;7.88;3.17;;;;;;;;;;5028767;28;20085;-71
2022/06/09 09:53:19;;;;;;;9.38;3.50;;;;;;;;;;5028595;28;20052;-71
2022/06/09 09:55:50;;;;;;;6.13;3.05;;;;;;;;;;5028529;28;20061;-71
2022/06/09 09:58:57;;;;;;;9.10;3.92;;;;;;;;;;4995511;28;20592;-71
2022/06/09 10:10:32;;;;;;;7.50;3.45;;;;;;;;;;5048228;28;20057;-71
2022/06/09 10:13:32;;;;;;;8.63;2.97;;;;;;;;;;5036174;28;20049;-70
2022/06/09 10:16:03;;;;;;;8.10;3.53;;;;;;;;;;5088404;28;20060;-70
2022/06/09 10:18:54;;;;;;;14.90;4.00;;;;;;;;;;5088509;28;20048;-70
2022/06/09 10:21:58;;;;;;;9.27;3.58;;;;;;;;;;5088528;28;20069;-68
2022/06/09 10:24:48;;;;;;;;;;;;;;;;;;5028368;28;20060;-70
2022/06/09 10:27:22;;;;;;;7.97;3.33;;;;;;;;;;5028229;28;19921;-69
2022/06/09 10:30:13;;;;;;;8.55;3.75;;;;;;;;;;5030279;28;20057;-69
2022/06/09 10:33:16;;;;;;;10.73;4.70;;;;;;;;;;5048168;28;20049;-70
2022/06/09 10:36:16;;;;;;;8.60;3.83;;;;;;;;;;5008467;28;20064;-69
2022/06/09 10:39:02;;;;;;;60.13;22.13;;;;;;;;;;4988595;28;20150;-69
2022/06/09 10:41:47;;;;;;;12.02;5.32;;;;;;;;;;4989028;28;20647;-69
2022/06/09 10:44:33;;;;;;;9.40;4.88;;;;;;;;;;4972779;28;20058;-70
2022/06/09 10:57:07;;;;;;;9.55;3.63;;;;;;;;;;4992189;28;20062;-69
2022/06/09 10:59:54;;;;;;;12.05;5.60;;;;;;;;;;4992187;28;20777;-69
2022/06/09 11:02:27;;;;;;;9.20;4.50;;;;;;;;;;4985737;28;20053;-70
2022/06/09 11:05:00;;;;;;;12.10;5.32;;;;;;;;;;4998513;28;20057;-69
2022/06/09 11:07:55;;;;;;;9.73;4.22;;;;;;;;;;5031540;28;20053;-70
2022/06/09 11:10:47;;;;;;;7.82;3.97;;;;;;;;;;5031632;28;20065;-69
2022/06/09 11:13:53;;;;;;;10.02;4.63;;;;;;;;;;5085029;28;20044;-70
2022/06/09 11:16:24;;;;;;;8.30;3.65;;;;;;;;;;5092518;28;20071;-69
2022/06/09 11:19:17;;;;;;;50.08;34.38;;;;;;;;;;5093940;28;20395;-70
2022/06/09 11:22:05;;;;;;;15.95;8.23;;;;;;;;;;5070839;28;20052;-70
2022/06/09 11:25:01;;;;;;;16.05;7.75;;;;;;;;;;5031061;28;20049;-70
2022/06/09 11:27:46;;;;;;;16.10;6.10;;;;;;;;;;5011014;28;20096;-70
2022/06/09 11:30:25;;;;;;;12.40;5.25;;;;;;;;;;5011224;28;20052;-70
2022/06/09 11:33:15;;;;;;;12.60;5.40;;;;;;;;;;4978607;28;20053;-70
2022/06/09 11:36:34;;;;;;;13.07;5.63;;;;;;;;;;4978558;28;20520;-69
2022/06/09 11:39:23;;;;;;;15.43;7.07;;;;;;;;;;4920796;29;20059;-70
2022/06/09 11:42:05;;;;;;;16.77;7.38;;;;;;;;;;4936555;29;20051;-70
2022/06/09 11:44:39;;;;;;;18.52;8.23;;;;;;;;;;4952554;29;20047;-70
2022/06/09 11:47:16;;;;;;;19.30;8.45;;;;;;;;;;4901675;29;20044;-70
2022/06/09 11:49:51;;;;;;;18.30;7.43;;;;;;;;;;4917784;29;20062;-70
2022/06/09 11:52:24;;;;;;;16.38;7.47;;;;;;;;;;4917981;29;20060;-70
2022/06/09 11:54:55;;;;;;;13.18;5.75;;;;;;;;;;4933299;29;20060;-70
2022/06/09 11:57:37;;;;;;;16.98;8.23;;;;;;;;;;4933385;29;20055;-69
2022/06/09 12:00:22;;;;;;;17.17;6.93;;;;;;;;;;4895220;29;20061;-69
2022/06/09 12:03:14;;;;;;;16.08;6.90;;;;;;;;;;4899717;29;20064;-69
2022/06/09 12:06:06;;;;;;;17.23;7.93;;;;;;;;;;4922714;29;20059;-70
2022/06/09 12:09:00;;;;;;;13.43;6.72;;;;;;;;;;4933088;29;20113;-70
2022/06/09 12:11:54;;;;;;;16.58;7.18;;;;;;;;;;4932948;29;20064;-70
2022/06/09 12:14:27;;;;;;;15.75;7.25;;;;;;;;;;5010180;28;20628;-69
2022/06/09 12:17:07;;;;;;;15.77;6.72;;;;;;;;;;4978335;28;20065;-70
2022/06/09 12:19:59;;;;;;;17.52;6.90;;;;;;;;;;4978190;28;20061;-69
2022/06/09 12:22:45;;;;;;;23.13;8.80;;;;;;;;;;5010674;28;20058;-69
2022/06/09 12:25:17;;;;;;;25.13;9.73;;;;;;;;;;5023584;28;20064;-70
2022/06/09 12:27:50;;;;;;;30.55;11.82;;;;;;;;;;5030134;28;20041;-69
2022/06/09 12:30:28;;;;;;;26.00;10.05;;;;;;;;;;5029700;28;20394;-69
2022/06/09 12:33:30;;;;;;;28.52;10.75;;;;;;;;;;4981037;28;20061;-69
2022/06/09 12:36:12;;;;;;;22.30;9.63;;;;;;;;;;5029738;28;20045;-69
2022/06/09 12:38:55;;;;;;;24.08;9.45;;;;;;;;;;5015646;28;20068;-69
2022/06/09 12:41:41;;;;;;;21.08;8.48;;;;;;;;;;5036301;28;20056;-69
2022/06/09 12:44:24;;;;;;;20.17;8.85;;;;;;;;;;5069458;28;20049;-69
2022/06/09 12:47:03;;;;;;;48.33;29.00;;;;;;;;;;5092046;28;20040;-69
2022/06/09 12:49:37;;;;;;;30.58;13.57;;;;;;;;;;5092059;28;20055;-69
2022/06/09 12:52:20;;;;;;;51.97;25.13;;;;;;;;;;5091912;28;20051;-70
2022/06/09 12:55:28;;;;;;;33.33;14.02;;;;;;;;;;5091978;28;20040;-68
2022/06/09 12:58:42;;;;;;;29.38;11.85;;;;;;;;;;5056563;28;20067;-69
2022/06/09 13:01:16;;;;;;;26.02;10.63;;;;;;;;;;5069090;28;20505;-69
2022/06/09 13:03:51;;;;;;;26.13;11.88;;;;;;;;;;4999801;28;20053;-69
2022/06/09 13:06:37;;;;;;;25.65;10.98;;;;;;;;;;5049120;28;20128;-69
2022/06/09 13:09:21;;;;;;;22.83;9.55;;;;;;;;;;5049066;28;20524;-69
2022/06/09 13:15:37;;;;;;;24.52;10.52;;;;;;;;;;5009007;28;20422;-69
2022/06/09 13:18:21;;;;;;;24.17;9.43;;;;;;;;;;5009209;28;20066;-70
2022/06/09 13:21:14;;;;;;;18.15;6.78;;;;;;;;;;4976637;28;20050;-68
2022/06/09 13:23:49;;;;;;;45.85;19.95;;;;;;;;;;4950915;29;20059;-69
2022/06/09 13:26:40;;;;;;;15.43;6.45;;;;;;;;;;4931294;29;20054;-69
2022/06/09 13:29:25;;;;;;;15.73;6.90;;;;;;;;;;4915620;29;20055;-69
2022/06/09 13:32:17;;;;;;;18.27;8.52;;;;;;;;;;4900061;29;20060;-69
2022/06/09 13:34:49;;;;;;;26.90;12.60;;;;;;;;;;4931482;29;20393;-70
2022/06/09 13:37:35;;;;;;;22.55;9.85;;;;;;;;;;4884779;29;20055;-69
2022/06/09 13:40:14;;;;;;;23.48;10.90;;;;;;;;;;4931608;29;20064;-70
2022/06/09 13:43:05;;;;;;;21.38;10.48;;;;;;;;;;4935075;29;20831;-68
2022/06/09 13:45:38;;;;;;;19.58;8.95;;;;;;;;;;4970081;28;20080;-69
2022/06/09 13:48:14;;;;;;;25.50;10.98;;;;;;;;;;4988726;28;20514;-69
2022/06/09 13:51:08;;;;;;;22.23;9.75;;;;;;;;;;4989376;28;20450;-68
2022/06/09 13:53:46;;;;;;;19.38;8.68;;;;;;;;;;4989272;28;20526;-69
2022/06/09 13:56:19;;;;;;;17.17;7.65;;;;;;;;;;4950298;29;20059;-68
2022/06/09 13:58:49;;;;;;;15.10;7.97;;;;;;;;;;4969414;28;20136;-69
2022/06/09 14:01:20;;;;;;;15.98;7.68;;;;;;;;;;4950282;28;20057;-69
2022/06/09 14:03:51;;;;;;;16.65;8.15;;;;;;;;;;4998173;28;20054;-68
2022/06/09 14:06:23;;;;;;;18.90;9.05;;;;;;;;;;5008686;28;20058;-68
2022/06/09 14:08:55;;;;;;;10.20;5.07;;;;;;;;;;5008562;28;20061;-69
2022/06/09 14:11:30;;;;;;;12.18;4.70;;;;;;;;;;4988739;28;20054;-69
2022/06/09 14:14:21;;;;;;;9.05;4.10;;;;;;;;;;4988920;28;20046;-69
2022/06/09 14:16:51;;;;;;;7.57;3.53;;;;;;;;;;4949887;29;20047;-69
2022/06/09 14:19:22;;;;;;;7.13;2.97;;;;;;;;;;4950491;29;20579;-69
2022/06/09 14:21:52;;;;;;;7.80;3.30;;;;;;;;;;4935746;29;20066;-69
2022/06/09 14:24:25;;;;;;;5.43;3.03;;;;;;;;;;4906419;29;20059;-69
2022/06/09 14:26:56;;;;;;;5.50;2.95;;;;;;;;;;4953939;29;20063;-69
2022/06/09 14:29:29;;;;;;;20.30;8.65;;;;;;;;;;4953931;29;20055;-70
2022/06/09 14:32:01;;;;;;;32.33;10.27;;;;;;;;;;4922146;29;20443;-69
2022/06/09 14:34:31;;;;;;;9.73;4.45;;;;;;;;;;4920672;28;20054;-68
2022/06/09 14:37:02;;;;;;;18.35;7.30;;;;;;;;;;5001430;28;20054;-70
2022/06/09 14:39:33;;;;;;;10.57;4.80;;;;;;;;;;4995874;28;20506;-69
2022/06/09 14:42:04;;;;;;;34.58;12.95;;;;;;;;;;5012117;28;20413;-69
2022/06/09 14:44:35;;;;;;;8.75;4.55;;;;;;;;;;5012292;28;20053;-69
2022/06/09 14:47:05;;;;;;;8.45;4.10;;;;;;;;;;4979257;28;20498;-69
2022/06/09 14:49:35;;;;;;;37.80;18.20;;;;;;;;;;5021128;28;20044;-69
2022/06/09 14:52:06;;;;;;;15.38;7.72;;;;;;;;;;5071521;28;20053;-69
2022/06/09 14:54:36;;;;;;;8.50;3.20;;;;;;;;;;5019995;28;20758;-69
2022/06/09 14:57:08;;;;;;;7.80;3.85;;;;;;;;;;5014691;28;20042;-69
2022/06/09 14:59:39;;;;;;;5.80;3.15;;;;;;;;;;5031619;28;20073;-69
2022/06/09 15:02:18;;;;;;;7.85;3.50;;;;;;;;;;5011345;28;20521;-70
2022/06/09 15:04:50;;;;;;;6.65;3.22;;;;;;;;;;4995868;28;20414;-70
2022/06/09 15:07:21;;;;;;;6.22;2.80;;;;;;;;;;4979004;28;20045;-69
2022/06/09 15:09:51;;;;;;;;;;;;;;;;;;4979857;28;20058;-70
2022/06/09 15:12:22;;;;;;;5.22;2.53;;;;;;;;;;4995151;28;19921;-69
2022/06/09 15:14:52;;;;;;;5.68;2.78;;;;;;;;;;5011242;28;20081;-69
2022/06/09 15:17:23;;;;;;;5.65;2.70;;;;;;;;;;5011605;28;20050;-69
2022/06/09 15:19:53;;;;;;;6.05;2.60;;;;;;;;;;5011373;28;20073;-69
2022/06/09 15:22:23;;;;;;;14.95;5.90;;;;;;;;;;5011375;28;20053;-69
2022/06/09 15:24:54;;;;;;;19.88;9.10;;;;;;;;;;5011396;28;20066;-66
2022/06/09 15:27:24;;;;;;;13.25;4.93;;;;;;;;;;5011081;28;20046;-68
2022/06/09 15:29:54;;;;;;;8.23;3.78;;;;;;;;;;5011230;28;20049;-68
2022/06/09 15:32:26;;;;;;;44.90;15.45;;;;;;;;;;4989400;28;20080;-71
2022/06/09 15:34:58;;;;;;;12.00;4.40;;;;;;;;;;5053499;28;20044;-69
2022/06/09 15:37:29;;;;;;;7.70;3.67;;;;;;;;;;5020928;28;20057;-69
2022/06/09 15:40:02;;;;;;;8.35;3.70;;;;;;;;;;5084308;28;20086;-69
2022/06/09 15:42:33;;;;;;;20.60;10.50;;;;;;;;;;5040320;28;20048;-71
2022/06/09 15:45:05;;;;;;;11.52;5.07;;;;;;;;;;5057409;28;20055;-70
2022/06/09 15:47:36;;;;;;;14.73;7.60;;;;;;;;;;5040655;28;20048;-70
2022/06/09 15:50:08;;;;;;;10.73;5.70;;;;;;;;;;5050239;28;20041;-69
2022/06/09 15:52:39;;;;;;;10.00;4.70;;;;;;;;;;5017514;28;20057;-68
2022/06/09 15:55:11;;;;;;;8.13;3.42;;;;;;;;;;5050455;28;20056;-68
2022/06/09 15:57:41;;;;;;;10.48;5.32;;;;;;;;;;5010418;28;20061;-69
2022/06/09 16:00:25;;;;;;;10.10;4.60;;;;;;;;;;5010773;28;20057;-69